createdAt,value
2019-02-07T00:01:15.224Z,78.20
2019-02-07T00:03:45.309Z,78.70
2019-02-07T00:06:15.331Z,79.73
2019-02-07T00:08:45.067Z,77.13
2019-02-07T00:11:14.722Z,75.93
2019-02-07T00:13:45.391Z,75.37
2019-02-07T00:16:15.380Z,74.93
2019-02-07T00:18:45.391Z,75.17
2019-02-07T00:21:15.107Z,77.17
2019-02-07T00:23:45.131Z,80.40
2019-02-07T00:26:15.074Z,76.33
2019-02-07T00:28:45.279Z,79.00
2019-02-07T00:31:15.035Z,77.60
2019-02-07T00:33:44.754Z,74.90
2019-02-07T00:36:14.531Z,76.87
2019-02-07T00:38:44.775Z,72.33
2019-02-07T00:41:14.888Z,73.87
2019-02-07T00:43:44.691Z,71.87
2019-02-07T00:46:14.652Z,70.83
2019-02-07T00:48:44.400Z,70.97
2019-02-07T00:51:14.301Z,70.47
2019-02-07T00:53:44.507Z,68.97
2019-02-07T00:56:15.441Z,66.60
2019-02-07T00:58:45.574Z,64.33
2019-02-07T01:01:15.700Z,65.93
2019-02-07T01:03:45.979Z,64.67
2019-02-07T01:06:16.834Z,64.27
2019-02-07T01:08:47.479Z,59.07
2019-02-07T01:11:17.748Z,63.47
2019-02-07T01:13:48.167Z,59.57
2019-02-07T01:16:19.225Z,56.47
2019-02-07T01:18:49.155Z,54.90
2019-02-07T01:21:19.175Z,54.43
2019-02-07T01:23:49.116Z,52.53
2019-02-07T01:26:19.407Z,52.20
2019-02-07T01:28:49.588Z,51.43
2019-02-07T01:31:19.503Z,49.13
2019-02-07T01:33:49.863Z,50.20
2019-02-07T01:36:20.096Z,50.27
2019-02-07T01:38:51.307Z,50.43
2019-02-07T01:41:21.987Z,49.20
2019-02-07T01:43:52.124Z,50.93
2019-02-07T01:46:22.910Z,51.53
2019-02-07T01:48:53.626Z,50.57
2019-02-07T01:51:23.659Z,50.60
2019-02-07T01:53:55.346Z,51.03
2019-02-07T01:56:25.225Z,49.87
2019-02-07T01:58:55.213Z,49.53
2019-02-07T02:01:25.534Z,52.43
2019-02-07T02:03:55.750Z,53.93
2019-02-07T02:06:26.031Z,55.30
2019-02-07T02:08:56.483Z,55.73
2019-02-07T02:11:26.358Z,52.83
2019-02-07T02:13:56.308Z,53.63
2019-02-07T02:16:27.135Z,55.40
2019-02-07T02:18:57.255Z,54.70
2019-02-07T02:21:27.172Z,55.63
2019-02-07T02:23:57.035Z,54.53
2019-02-07T02:26:27.311Z,55.63
2019-02-07T02:28:57.576Z,54.37
2019-02-07T02:31:28.555Z,55.63
2019-02-07T02:33:58.463Z,55.37
2019-02-07T02:36:28.903Z,56.27
2019-02-07T02:38:59.171Z,54.87
2019-02-07T02:41:29.117Z,52.97
2019-02-07T02:43:58.772Z,55.67
2019-02-07T02:46:29.508Z,54.53
2019-02-07T02:48:59.497Z,53.23
2019-02-07T02:51:29.663Z,54.80
2019-02-07T02:54:01.395Z,54.50
2019-02-07T02:56:31.105Z,53.37
2019-02-07T02:59:01.112Z,54.70
2019-02-07T03:01:35.751Z,56.10
2019-02-07T03:04:11.231Z,51.90
2019-02-07T03:06:45.518Z,52.70
2019-02-07T03:09:23.343Z,53.23
2019-02-07T03:12:02.375Z,53.67
2019-02-07T03:14:33.963Z,54.97
2019-02-07T03:17:14.815Z,53.40
2019-02-07T03:19:52.513Z,54.77
2019-02-07T03:22:27.110Z,53.87
2019-02-07T03:25:16.857Z,53.73
2019-02-07T03:28:03.375Z,56.17
2019-02-07T03:30:41.193Z,55.40
2019-02-07T03:33:25.457Z,56.63
2019-02-07T03:36:09.065Z,53.50
2019-02-07T03:38:40.708Z,56.37
2019-02-07T03:41:14.700Z,53.57
2019-02-07T03:43:54.741Z,53.30
2019-02-07T03:46:26.170Z,52.60
2019-02-07T03:48:57.667Z,55.07
2019-02-07T03:51:29.034Z,53.93
2019-02-07T03:54:06.881Z,54.07
2019-02-07T03:56:47.955Z,49.80
2019-02-07T03:59:19.560Z,51.30
2019-02-07T04:01:59.931Z,48.97
2019-02-07T04:04:37.834Z,50.63
2019-02-07T04:07:12.071Z,48.23
2019-02-07T04:09:44.111Z,48.17
2019-02-07T04:12:15.699Z,47.90
2019-02-07T04:14:47.349Z,46.27
2019-02-07T04:17:28.070Z,45.53
2019-02-07T04:20:11.837Z,45.63
2019-02-07T04:22:53.278Z,45.93
2019-02-07T04:25:40.608Z,46.03
2019-02-07T04:28:28.454Z,44.00
2019-02-07T04:30:59.531Z,44.47
2019-02-07T04:33:30.608Z,42.80
2019-02-07T04:36:17.251Z,45.23
2019-02-07T04:38:54.614Z,43.07
2019-02-07T04:41:28.759Z,42.63
2019-02-07T04:44:16.746Z,43.77
2019-02-07T04:46:48.277Z,43.60
2019-02-07T04:49:19.488Z,43.77
2019-02-07T04:51:54.892Z,44.33
2019-02-07T04:54:25.993Z,40.67
2019-02-07T04:56:57.749Z,41.47
2019-02-07T04:59:29.224Z,40.20
2019-02-07T05:02:03.168Z,41.70
2019-02-07T05:04:47.747Z,41.87
2019-02-07T05:07:30.766Z,41.10
2019-02-07T05:10:14.580Z,42.50
2019-02-07T05:12:46.002Z,40.37
2019-02-07T05:15:20.663Z,40.30
2019-02-07T05:17:51.895Z,37.97
2019-02-07T05:20:31.871Z,36.47
2019-02-07T05:23:19.723Z,40.00
2019-02-07T05:25:51.093Z,37.17
2019-02-07T05:28:29.561Z,36.20
2019-02-07T05:31:16.703Z,37.57
2019-02-07T05:33:47.856Z,35.93
2019-02-07T05:36:19.339Z,34.47
2019-02-07T05:38:50.563Z,34.53
2019-02-07T05:41:22.848Z,34.43
2019-02-07T05:43:59.905Z,33.57
2019-02-07T05:46:50.750Z,36.23
2019-02-07T05:49:31.540Z,33.43
2019-02-07T05:52:19.487Z,32.03
2019-02-07T05:55:08.600Z,32.87
2019-02-07T05:57:49.057Z,32.13
2019-02-07T06:00:23.551Z,32.97
2019-02-07T06:03:01.138Z,30.87
2019-02-07T06:05:44.812Z,30.97
2019-02-07T06:08:22.154Z,29.17
2019-02-07T06:10:53.367Z,29.67
2019-02-07T06:13:40.975Z,31.83
2019-02-07T06:16:28.156Z,29.73
2019-02-07T06:18:59.765Z,30.20
2019-02-07T06:21:40.290Z,30.17
2019-02-07T06:24:23.467Z,30.70
2019-02-07T06:26:56.439Z,29.00
2019-02-07T06:29:28.312Z,30.03
2019-02-07T06:31:59.497Z,27.97
2019-02-07T06:34:34.027Z,28.47
2019-02-07T06:37:23.565Z,27.50
2019-02-07T06:39:55.904Z,26.97
2019-02-07T06:42:52.995Z,27.90
2019-02-07T06:45:41.550Z,28.33
2019-02-07T06:48:23.353Z,27.70
2019-02-07T06:50:54.835Z,26.80
2019-02-07T06:53:32.356Z,25.93
2019-02-07T06:56:16.175Z,26.83
2019-02-07T06:58:50.439Z,28.13
2019-02-07T07:01:41.503Z,27.30
2019-02-07T07:04:18.719Z,26.00
2019-02-07T07:06:59.561Z,25.40
2019-02-07T07:09:39.699Z,25.90
2019-02-07T07:12:24.033Z,25.37
2019-02-07T07:15:07.844Z,25.10
2019-02-07T07:17:56.086Z,26.27
2019-02-07T07:20:36.499Z,24.17
2019-02-07T07:23:26.574Z,26.20
2019-02-07T07:25:58.739Z,24.67
2019-02-07T07:28:43.028Z,24.27
2019-02-07T07:31:17.243Z,23.97
2019-02-07T07:34:01.495Z,23.97
2019-02-07T07:39:54.463Z,24.00
2019-02-07T07:42:26.086Z,24.10
2019-02-07T07:45:01.091Z,22.93
2019-02-07T07:47:48.350Z,22.13
2019-02-07T07:50:38.423Z,21.97
2019-02-07T07:53:15.637Z,21.87
2019-02-07T07:55:53.463Z,22.50
2019-02-07T07:58:41.059Z,21.97
2019-02-07T08:01:28.844Z,21.30
2019-02-07T08:04:01.071Z,22.00
2019-02-07T08:06:48.899Z,22.17
2019-02-07T08:09:36.839Z,22.60
2019-02-07T08:12:11.383Z,22.77
2019-02-07T08:14:45.795Z,20.33
2019-02-07T08:17:32.368Z,21.07
2019-02-07T08:20:05.161Z,21.93
2019-02-07T08:22:42.608Z,20.93
2019-02-07T08:25:27.462Z,20.47
2019-02-07T08:28:13.967Z,21.27
2019-02-07T08:30:52.383Z,19.60
2019-02-07T08:33:30.607Z,19.37
2019-02-07T08:36:05.039Z,20.20
2019-02-07T08:38:36.359Z,18.80
2019-02-07T08:41:19.838Z,19.00
2019-02-07T08:44:00.063Z,19.13
2019-02-07T08:46:43.148Z,18.73
2019-02-07T08:49:33.182Z,18.13
2019-02-07T08:52:10.536Z,19.13
2019-02-07T08:54:45.415Z,17.67
2019-02-07T08:57:22.786Z,19.00
2019-02-07T08:59:54.859Z,19.13
2019-02-07T09:02:51.543Z,19.97
2019-02-07T09:05:15.455Z,20.10
2019-02-07T09:07:52.385Z,19.97
2019-02-07T09:10:24.051Z,20.57
2019-02-07T09:13:01.485Z,20.43
2019-02-07T09:15:44.466Z,20.53
2019-02-07T09:18:31.155Z,22.33
2019-02-07T09:21:14.715Z,22.23
2019-02-07T09:23:55.064Z,21.47
2019-02-07T09:26:26.326Z,22.77
2019-02-07T09:28:57.762Z,21.67
2019-02-07T09:31:32.928Z,22.53
2019-02-07T09:34:20.451Z,21.63
2019-02-07T09:36:51.651Z,21.43
2019-02-07T09:39:31.851Z,22.47
2019-02-07T09:42:08.744Z,21.77
2019-02-07T09:44:56.314Z,21.80
2019-02-07T09:47:36.504Z,23.33
2019-02-07T09:50:16.563Z,23.00
2019-02-07T09:52:51.067Z,22.30
2019-02-07T09:55:29.951Z,21.10
2019-02-07T09:58:17.163Z,21.70
2019-02-07T10:00:48.588Z,20.63
2019-02-07T10:03:19.675Z,20.97
2019-02-07T10:05:53.731Z,21.27
2019-02-07T10:08:33.983Z,21.37
2019-02-07T10:11:05.238Z,20.50
2019-02-07T10:13:51.390Z,20.33
2019-02-07T10:16:23.302Z,20.50
2019-02-07T10:19:00.294Z,20.10
2019-02-07T10:21:34.529Z,19.97
2019-02-07T10:24:21.020Z,21.07
2019-02-07T10:26:55.285Z,18.80
2019-02-07T10:29:27.158Z,18.80
2019-02-07T10:32:01.847Z,18.73
2019-02-07T10:34:47.160Z,18.13
2019-02-07T10:37:18.516Z,18.97
2019-02-07T10:39:56.355Z,17.37
2019-02-07T10:42:27.835Z,18.80
2019-02-07T10:45:14.890Z,18.57
2019-02-07T10:48:02.420Z,18.73
2019-02-07T10:50:37.111Z,17.63
2019-02-07T10:53:23.072Z,19.43
2019-02-07T10:56:10.698Z,18.00
2019-02-07T10:58:45.014Z,18.07
2019-02-07T11:01:22.345Z,18.37
2019-02-07T11:04:08.539Z,17.90
2019-02-07T11:06:56.399Z,19.23
2019-02-07T11:09:43.447Z,19.27
2019-02-07T11:12:27.053Z,19.37
2019-02-07T11:15:01.579Z,20.07
2019-02-07T11:17:48.139Z,19.93
2019-02-07T11:20:35.899Z,19.03
2019-02-07T11:23:23.789Z,20.10
2019-02-07T11:26:01.299Z,18.53
2019-02-07T11:28:41.828Z,18.93
2019-02-07T11:31:13.349Z,19.40
2019-02-07T11:33:44.532Z,19.73
2019-02-07T11:36:16.632Z,18.77
2019-02-07T11:39:03.926Z,19.60
2019-02-07T11:41:38.308Z,18.53
2019-02-07T11:44:16.066Z,18.40
2019-02-07T11:46:48.971Z,19.30
2019-02-07T11:49:25.234Z,19.77
2019-02-07T11:52:15.007Z,19.17
2019-02-07T11:54:54.582Z,17.80
2019-02-07T11:57:34.981Z,16.43
2019-02-07T12:00:23.402Z,17.07
2019-02-07T12:03:04.131Z,16.80
2019-02-07T12:05:35.843Z,16.80
2019-02-07T12:08:19.619Z,16.63
2019-02-07T12:11:07.242Z,16.50
2019-02-07T12:13:44.747Z,14.13
2019-02-07T12:16:33.970Z,15.13
2019-02-07T12:19:05.575Z,14.30
2019-02-07T12:21:45.970Z,14.60
2019-02-07T12:24:33.725Z,15.27
2019-02-07T12:27:11.342Z,13.80
2019-02-07T12:29:49.122Z,14.10
2019-02-07T12:32:21.200Z,12.70
2019-02-07T12:35:04.809Z,12.53
2019-02-07T12:37:53.537Z,12.63
2019-02-07T12:40:29.787Z,12.20
2019-02-07T12:43:10.621Z,12.23
2019-02-07T12:45:51.043Z,11.90
2019-02-07T12:48:25.219Z,12.53
2019-02-07T12:51:12.934Z,12.00
2019-02-07T12:53:59.321Z,12.60
2019-02-07T12:56:36.939Z,12.00
2019-02-07T12:59:23.587Z,11.20
2019-02-07T13:01:55.448Z,11.13
2019-02-07T13:04:42.716Z,9.53
2019-02-07T13:07:17.365Z,10.47
2019-02-07T13:09:57.498Z,9.90
2019-02-07T13:12:32.009Z,10.03
2019-02-07T13:15:03.746Z,9.87
2019-02-07T13:17:40.968Z,9.97
2019-02-07T13:20:27.329Z,9.10
2019-02-07T13:23:01.888Z,9.67
2019-02-07T13:25:48.234Z,9.03
2019-02-07T13:28:19.879Z,9.10
2019-02-07T13:30:58.209Z,8.63
2019-02-07T13:33:35.760Z,7.70
2019-02-07T13:36:15.364Z,7.77
2019-02-07T13:38:54.372Z,5.47
2019-02-07T13:41:42.498Z,4.80
2019-02-07T13:44:14.984Z,4.10
2019-02-07T13:47:05.126Z,3.90
2019-02-07T13:49:51.349Z,3.90
2019-02-07T13:52:13.787Z,3.87
2019-02-07T13:55:03.103Z,4.30
2019-02-07T13:57:43.306Z,3.50
2019-02-07T14:00:23.455Z,3.97
2019-02-07T14:03:06.818Z,3.70
2019-02-07T14:05:38.664Z,4.00
2019-02-07T14:08:13.067Z,3.60
2019-02-07T14:10:44.077Z,4.33
2019-02-07T14:13:24.043Z,4.43
2019-02-07T14:16:11.284Z,2.97
2019-02-07T14:18:48.647Z,3.93
2019-02-07T14:21:25.356Z,3.53
2019-02-07T14:23:56.393Z,3.40
2019-02-07T14:26:27.641Z,3.87
2019-02-07T14:29:15.269Z,3.33
2019-02-07T14:31:50.563Z,3.77
2019-02-07T14:34:24.672Z,3.77
2019-02-07T14:37:04.852Z,3.40
2019-02-07T14:39:53.129Z,3.20
2019-02-07T14:42:31.153Z,3.77
2019-02-07T14:45:20.639Z,3.40
2019-02-07T14:47:53.143Z,3.90
2019-02-07T14:50:22.658Z,3.53
2019-02-07T14:52:52.200Z,3.20
2019-02-07T14:55:22.029Z,3.27
2019-02-07T14:57:51.569Z,3.53
2019-02-07T15:00:25.258Z,3.87
2019-02-07T15:02:54.884Z,3.80
2019-02-07T15:05:27.406Z,3.43
2019-02-07T15:07:57.016Z,3.57
2019-02-07T15:10:26.510Z,3.10
2019-02-07T15:12:56.161Z,4.07
2019-02-07T15:15:26.198Z,4.00
2019-02-07T15:17:55.810Z,3.60
2019-02-07T15:20:27.055Z,3.30
2019-02-07T15:22:57.052Z,3.67
2019-02-07T15:25:26.764Z,3.67
2019-02-07T15:27:57.807Z,3.60
2019-02-07T15:30:27.844Z,3.97
2019-02-07T15:32:58.056Z,3.50
2019-02-07T15:35:39.364Z,4.33
2019-02-07T15:38:09.019Z,3.83
2019-02-07T15:40:40.682Z,4.20
2019-02-07T15:43:12.991Z,3.77
2019-02-07T15:45:42.669Z,3.90
2019-02-07T15:48:15.662Z,3.30
2019-02-07T15:50:45.243Z,3.70
2019-02-07T15:53:15.071Z,4.00
2019-02-07T15:55:44.640Z,3.60
2019-02-07T15:58:14.177Z,3.37
2019-02-07T16:00:45.187Z,4.03
2019-02-07T16:03:35.377Z,3.80
2019-02-07T16:06:06.424Z,4.03
2019-02-07T16:08:36.280Z,4.27
2019-02-07T16:11:06.579Z,4.20
2019-02-07T16:13:36.779Z,3.63
2019-02-07T16:16:06.480Z,3.43
2019-02-07T16:18:36.035Z,3.73
2019-02-07T16:21:05.744Z,3.93
2019-02-07T16:23:35.734Z,4.27
2019-02-07T16:26:05.771Z,3.90
2019-02-07T16:28:35.875Z,3.40
2019-02-07T16:31:06.532Z,3.83
2019-02-07T16:33:36.093Z,4.30
2019-02-07T16:36:09.391Z,3.80
2019-02-07T16:38:43.324Z,3.43
2019-02-07T16:41:13.335Z,4.37
2019-02-07T16:43:44.224Z,4.00
2019-02-07T16:46:14.618Z,3.57
2019-02-07T16:48:44.102Z,3.70
2019-02-07T16:51:14.162Z,3.73
2019-02-07T16:53:45.887Z,3.80
2019-02-07T16:56:16.671Z,4.57
2019-02-07T16:58:46.418Z,4.80
2019-02-07T17:01:17.867Z,3.93
2019-02-07T17:03:47.655Z,3.87
2019-02-07T17:06:17.191Z,4.00
2019-02-07T17:08:47.567Z,4.07
2019-02-07T17:11:17.181Z,3.87
2019-02-07T17:13:47.130Z,3.87
2019-02-07T17:16:18.483Z,3.33
2019-02-07T17:18:47.960Z,4.20
2019-02-07T17:21:17.591Z,4.10
2019-02-07T17:23:47.820Z,4.20
2019-02-07T17:26:17.391Z,4.10
2019-02-07T17:28:47.131Z,4.27
2019-02-07T17:31:16.719Z,4.47
2019-02-07T17:33:46.373Z,4.20
2019-02-07T17:36:16.384Z,4.20
2019-02-07T17:38:48.374Z,4.13
2019-02-07T17:41:18.051Z,3.90
2019-02-07T17:43:47.611Z,3.63
2019-02-07T17:46:17.289Z,4.27
2019-02-07T17:48:46.993Z,4.23
2019-02-07T17:51:23.280Z,3.80
2019-02-07T17:53:50.908Z,4.00
2019-02-07T17:56:20.486Z,4.03
2019-02-07T17:58:50.033Z,4.00
2019-02-07T18:01:19.728Z,4.37
2019-02-07T18:03:49.282Z,3.80
2019-02-07T18:12:05.299Z,4.13
2019-02-07T18:14:43.096Z,4.43
2019-02-07T18:17:12.601Z,3.97
2019-02-07T18:19:43.501Z,4.17
2019-02-07T18:22:14.395Z,3.33
2019-02-07T18:24:47.108Z,3.73
2019-02-07T18:27:16.950Z,3.80
2019-02-07T18:29:46.800Z,3.83
2019-02-07T18:32:16.333Z,3.53
2019-02-07T18:34:46.127Z,3.60
2019-02-07T18:37:17.452Z,3.30
2019-02-07T18:39:47.119Z,3.60
2019-02-07T18:42:16.739Z,3.30
2019-02-07T18:44:46.419Z,3.03
2019-02-07T18:47:18.811Z,3.07
2019-02-07T18:49:48.511Z,3.60
2019-02-07T18:52:18.414Z,3.73
2019-02-07T18:54:48.291Z,3.73
2019-02-07T18:57:18.089Z,4.17
2019-02-07T18:59:47.866Z,4.23
2019-02-07T19:02:20.160Z,3.87
2019-02-07T19:04:49.761Z,4.13
2019-02-07T19:07:22.193Z,4.70
2019-02-07T19:09:51.836Z,3.80
2019-02-07T19:12:21.502Z,4.10
2019-02-07T19:14:51.046Z,4.00
2019-02-07T19:17:20.570Z,4.20
2019-02-07T19:19:50.267Z,3.90
2019-02-07T19:22:20.908Z,3.30
2019-02-07T19:24:50.922Z,3.77
2019-02-07T19:27:20.439Z,3.50
2019-02-07T19:29:50.368Z,3.50
2019-02-07T19:32:20.488Z,3.80
2019-02-07T19:34:50.350Z,3.33
2019-02-07T19:37:23.078Z,3.57
2019-02-07T19:39:52.732Z,3.50
2019-02-07T19:42:22.331Z,3.90
2019-02-07T19:44:52.125Z,3.40
2019-02-07T19:47:21.616Z,3.63
2019-02-07T19:49:52.740Z,3.50
2019-02-07T19:52:26.268Z,3.10
2019-02-07T19:55:00.569Z,3.60
2019-02-07T19:57:31.334Z,3.87
2019-02-07T20:00:00.912Z,3.60
2019-02-07T20:02:31.658Z,3.57
2019-02-07T20:05:05.684Z,3.83
2019-02-07T20:07:35.254Z,4.27
2019-02-07T20:10:11.263Z,3.83
2019-02-07T20:12:42.480Z,4.30
2019-02-07T20:15:18.964Z,4.37
2019-02-07T20:17:48.603Z,4.60
2019-02-07T20:20:18.718Z,5.43
2019-02-07T20:22:49.275Z,5.23
2019-02-07T20:25:22.981Z,5.77
2019-02-07T20:27:52.462Z,5.43
2019-02-07T20:30:27.468Z,6.10
2019-02-07T20:32:57.037Z,6.10
2019-02-07T20:35:26.733Z,5.67
2019-02-07T20:37:56.448Z,6.10
2019-02-07T20:40:28.189Z,5.90
2019-02-07T20:42:57.921Z,7.10
2019-02-07T20:45:27.654Z,6.50
2019-02-07T20:47:57.755Z,6.10
2019-02-07T20:50:28.708Z,7.10
2019-02-07T20:52:59.156Z,6.57
2019-02-07T20:55:29.480Z,6.30
2019-02-07T20:57:59.158Z,5.70
2019-02-07T21:00:31.070Z,5.93
2019-02-07T21:03:00.957Z,5.03
2019-02-07T21:05:31.829Z,5.20
2019-02-07T21:08:01.958Z,5.70
2019-02-07T21:10:36.722Z,4.33
2019-02-07T21:13:08.193Z,3.70
2019-02-07T21:15:38.380Z,3.50
2019-02-07T21:18:09.968Z,3.33
2019-02-07T21:20:40.349Z,3.17
2019-02-07T21:23:09.968Z,3.10
2019-02-07T21:25:48.027Z,3.43
2019-02-07T21:28:26.499Z,3.00
2019-02-07T21:31:02.120Z,3.03
2019-02-07T21:33:30.761Z,2.77
2019-02-07T21:36:01.909Z,3.30
2019-02-07T21:38:50.286Z,3.40
2019-02-07T21:41:20.432Z,2.90
2019-02-07T21:43:50.185Z,3.40
2019-02-07T21:46:22.634Z,3.60
2019-02-07T21:48:52.741Z,3.57
2019-02-07T21:51:23.000Z,3.50
2019-02-07T21:53:54.731Z,3.57
2019-02-07T21:56:25.025Z,3.37
2019-02-07T21:58:54.785Z,4.40
2019-02-07T22:01:24.847Z,3.80
2019-02-07T22:03:55.006Z,4.43
2019-02-07T22:06:25.033Z,4.63
2019-02-07T22:08:57.011Z,3.70
2019-02-07T22:11:28.633Z,4.17
2019-02-07T22:13:59.120Z,3.87
2019-02-07T22:16:29.127Z,4.67
2019-02-07T22:18:59.982Z,3.63
2019-02-07T22:21:30.602Z,4.07
2019-02-07T22:24:00.657Z,3.97
2019-02-07T22:26:31.551Z,3.40
2019-02-07T22:29:01.656Z,3.90
2019-02-07T22:31:31.905Z,3.87
2019-02-07T22:34:08.240Z,3.60
2019-02-07T22:36:38.550Z,3.63
2019-02-07T22:39:09.184Z,3.67
2019-02-07T22:41:46.244Z,3.87
2019-02-07T22:47:58.507Z,3.63
2019-02-07T22:50:32.123Z,3.67
2019-02-07T22:53:02.744Z,3.80
2019-02-07T22:55:33.524Z,3.83
2019-02-07T22:58:04.336Z,3.60
2019-02-07T23:00:38.617Z,3.93
2019-02-07T23:03:16.547Z,3.93
2019-02-07T23:05:46.520Z,3.80
2019-02-07T23:08:17.159Z,3.97
2019-02-07T23:10:48.004Z,3.50
2019-02-07T23:13:18.327Z,4.03
2019-02-07T23:15:48.104Z,3.77
2019-02-07T23:18:18.321Z,3.50
2019-02-07T23:20:48.414Z,4.10
2019-02-07T23:23:18.409Z,3.50
2019-02-07T23:25:48.631Z,3.77
2019-02-07T23:28:18.367Z,3.70
2019-02-07T23:30:48.389Z,3.90
2019-02-07T23:33:18.507Z,3.83
2019-02-07T23:35:48.958Z,4.00
2019-02-07T23:38:19.317Z,3.70
2019-02-07T23:40:49.974Z,3.47
2019-02-07T23:43:20.180Z,3.83
2019-02-07T23:45:50.376Z,3.57
2019-02-07T23:48:20.674Z,3.70
2019-02-07T23:50:50.655Z,3.30
2019-02-07T23:53:21.186Z,3.53
2019-02-07T23:55:51.280Z,3.17
2019-02-07T23:58:21.330Z,3.73
